This is the latest recevied weather packets stored in our database for station/object VE2XOX. If no packets are shown the sender has not sent any weather packets the latest 10 day(s).
| Time | Temp. | Humidity | Pressure | Rain* | Wind** | Luminosity | Snow |
|---|---|---|---|---|---|---|---|
| 1778021418 | 15° C | 86% | 999.6 hPa | 1.02 mm | - | - | - |
| 1778021132 | 15° C | 86% | 999.4 hPa | 1.02 mm | - | - | - |
| 1778020815 | 15° C | 86% | 999.1 hPa | 1.02 mm | - | - | - |
| 1778020521 | 15.56° C | 85% | 999.1 hPa | 1.02 mm | - | - | - |
| 1778020224 | 15.56° C | 84% | 999.1 hPa | 0 mm | - | - | - |
| 1778019915 | 15.56° C | 83% | 998.9 hPa | 0 mm | - | - | - |
| 1778019619 | 15.56° C | 83% | 998.6 hPa | 0 mm | - | - | - |
| 1778019322 | 15.56° C | 83% | 998.5 hPa | 0 mm | - | - | - |
| 1778019015 | 15.56° C | 83% | 998.5 hPa | 2.03 mm | - | - | - |
| 1778018721 | 15.56° C | 84% | 998.4 hPa | 3.05 mm | - | - | - |
| 1778018423 | 15.56° C | 84% | 998.3 hPa | 5.08 mm | - | - | - |
| 1778018116 | 15.56° C | 84% | 998.2 hPa | 5.08 mm | - | - | - |
| 1778017821 | 15.56° C | 84% | 997.9 hPa | 5.08 mm | - | - | - |
| 1778017534 | 15.56° C | 84% | 998 hPa | 5.08 mm | - | - | - |
| 1778017224 | 15.56° C | 84% | 997.9 hPa | 5.08 mm | - | - | - |
| 1778016930 | 15.56° C | 83% | 997.9 hPa | 5.08 mm | - | - | - |
| 1778016616 | 16.11° C | 83% | 998 hPa | 5.08 mm | - | - | - |
| 1778016328 | 16.11° C | 83% | 998.2 hPa | 5.08 mm | - | - | - |
| 1778016013 | 16.67° C | 82% | 997.8 hPa | 5.08 mm | - | - | - |
| 1778015717 | 17.22° C | 79% | 997.9 hPa | 5.08 mm | - | - | - |
| 1778015428 | 18.33° C | 74% | 997.5 hPa | 2.03 mm | - | - | - |
| 1778015116 | 19.44° C | 70% | 997.2 hPa | 1.02 mm | - | - | - |
| 1778014819 | 20.56° C | 64% | 996.8 hPa | 0 mm | - | - | - |
| 1778014531 | 20.56° C | 64% | 996 hPa | 0 mm | - | - | - |
| 1778014217 | 20.56° C | 64% | 996 hPa | 0 mm | - | - | - |
* Rain latest hour (hover to see other rain measurements)
** Current wind speed in m/s (hover to see current wind gust speed)